Ruth M Reinauer — WDE7186 — position and weather

sailwx.info

Track history (hours):
 
Tides and Currents Weather Stations Pressure Air Temp Water Temp Dewpoint Dewpoint Depression Visibility Wind Speed Wind Dir Waves Ship Positions

Ruth M Reinauer

Owner: H.A. Reinauer, Staten Island, NY. More information available from US FCC via Universal Licensing System and Coast Guard Vessel Documentation Center.

Last reported at 2017-Dec-16 18:26 UTC. Time now 2017-Dec-16 18:46 UTC.
Position N 40°39' W 074°05'.

Length 151 m; draft 7.1 m.

Type: . MMSI: 367390130.

Date/timePositionNaut miles runAvg speedWind from/ knotsBaromVisibWave heightAir tempDewpointWater temp
2017-Dec-16 18:26N 40°39' W 074°05'0 0.0
2017-Dec-16 17:56N 40°39' W 074°05'0 0.0
2017-Dec-16 17:29N 40°39' W 074°05'0 0.1
2017-Dec-16 17:00N 40°39' W 074°05'3 5.1
2017-Dec-16 16:27N 40°40' W 074°02'0 0.1
2017-Dec-16 16:00N 40°40' W 074°02'0 0.1
2017-Dec-16 15:30N 40°40' W 074°02'0 0.2
2017-Dec-16 15:00N 40°40' W 074°02'0 0.0
2017-Dec-16 14:30N 40°40' W 074°02'0 0.0
2017-Dec-16 13:58N 40°40' W 074°02'1 1.4
2017-Dec-16 13:31N 40°41' W 074°02'4 8.1
2017-Dec-16 13:01N 40°45' W 074°01'4 7.2
2017-Dec-16 12:30N 40°48' W 073°59'4 7.2
2017-Dec-16 12:01N 40°51' W 073°57'4 7.6
2017-Dec-16 11:31N 40°55' W 073°55'5 0.1
2017-Dec-14 13:20N 40°59' W 073°54'3 9.6
2017-Dec-14 12:59N 40°56' W 073°55'510.2
2017-Dec-14 12:30N 40°51' W 073°57'510.7
2017-Dec-14 12:00N 40°47' W 073°60'510.3
2017-Dec-14 11:31N 40°42' W 074°02'4 8.1
2017-Dec-14 11:00N 40°39' W 074°06'1 1.3
2017-Dec-14 10:31N 40°39' W 074°07'0 0.0
2017-Dec-14 09:58N 40°39' W 074°07'0 0.0
2017-Dec-14 09:31N 40°39' W 074°07'0 0.0
2017-Dec-14 09:01N 40°39' W 074°07'0 0.0
2017-Dec-14 08:31N 40°39' W 074°07'0 0.0
2017-Dec-14 08:01N 40°39' W 074°07'0 0.0
2017-Dec-14 07:31N 40°39' W 074°07'0 0.0
2017-Dec-14 06:52N 40°39' W 074°07'0 0.0
2017-Dec-14 06:31N 40°39' W 074°07'0 0.0
2017-Dec-14 05:58N 40°39' W 074°07'0 0.0
2017-Dec-14 05:28N 40°39' W 074°07'0 0.0
2017-Dec-14 05:01N 40°39' W 074°07'0 0.0
2017-Dec-14 04:31N 40°39' W 074°07'0 0.0
2017-Dec-14 04:01N 40°39' W 074°07'0 0.0
2017-Dec-14 03:25N 40°39' W 074°07'0 0.0
2017-Dec-14 03:01N 40°39' W 074°07'0 0.0
2017-Dec-14 02:31N 40°39' W 074°07'0 0.0
2017-Dec-14 02:01N 40°39' W 074°07'0 0.0
2017-Dec-14 01:31N 40°39' W 074°07'0 0.0
2017-Dec-14 00:58N 40°39' W 074°07'0 0.0
2017-Dec-14 00:31N 40°39' W 074°07'0 0.0
2017-Dec-14 00:01N 40°39' W 074°07'0 0.0
2017-Dec-13 23:28N 40°39' W 074°07'0 0.0
2017-Dec-13 22:58N 40°39' W 074°07'0 0.0
2017-Dec-13 22:25N 40°39' W 074°07'0 0.0
2017-Dec-13 22:01N 40°39' W 074°07'0 0.0
2017-Dec-13 21:31N 40°39' W 074°07'0 0.0
2017-Dec-13 21:01N 40°39' W 074°07'0 0.0
2017-Dec-13 20:31N 40°39' W 074°07'0 0.0
2017-Dec-13 19:58N 40°39' W 074°07'0 0.0
2017-Dec-13 19:31N 40°39' W 074°07'0 0.0
2017-Dec-13 18:58N 40°39' W 074°07'0 0.0
2017-Dec-13 18:31N 40°39' W 074°07'0 0.0
2017-Dec-13 18:01N 40°39' W 074°07'0 0.0
2017-Dec-13 17:31N 40°39' W 074°07'0 0.0
2017-Dec-13 16:58N 40°39' W 074°07'0 0.0
2017-Dec-13 16:31N 40°39' W 074°07'0 0.0
2017-Dec-13 16:01N 40°39' W 074°07'0 0.0
2017-Dec-13 15:31N 40°39' W 074°07'0 0.0
2017-Dec-13 14:58N 40°39' W 074°07'0 0.0
2017-Dec-13 14:31N 40°39' W 074°07'0 0.0
2017-Dec-13 14:01N 40°39' W 074°07'0 0.0
2017-Dec-13 13:31N 40°39' W 074°07'0 0.0
2017-Dec-13 13:01N 40°39' W 074°07'0 0.0
2017-Dec-13 12:24N 40°39' W 074°07'0 0.0
2017-Dec-13 12:01N 40°39' W 074°07'0 0.0
2017-Dec-13 11:31N 40°39' W 074°07'0 0.0
2017-Dec-13 11:00N 40°39' W 074°07'0 0.0
2017-Dec-13 10:31N 40°39' W 074°07'0 0.0
2017-Dec-13 10:01N 40°39' W 074°07'0 0.0
2017-Dec-13 09:27N 40°39' W 074°07'0 0.0
2017-Dec-13 09:01N 40°39' W 074°07'0 0.0
2017-Dec-13 08:28N 40°39' W 074°07'0 0.0
2017-Dec-13 08:00N 40°39' W 074°07'0 0.0
2017-Dec-13 07:27N 40°39' W 074°07'0 0.0
2017-Dec-13 06:58N 40°39' W 074°07'0 0.0
2017-Dec-13 06:30N 40°39' W 074°07'0 0.0
2017-Dec-13 06:00N 40°39' W 074°07'0 0.0
2017-Dec-13 05:24N 40°39' W 074°07'0 0.0
2017-Dec-13 05:00N 40°39' W 074°07'0 0.0
2017-Dec-13 04:30N 40°39' W 074°07'0 0.0
2017-Dec-13 04:00N 40°39' W 074°07'0 0.0
2017-Dec-13 03:30N 40°39' W 074°07'1 2.9
2017-Dec-13 03:00N 40°39' W 074°05'4 7.6
2017-Dec-13 02:30N 40°41' W 074°01'510.2
2017-Dec-13 02:00N 40°46' W 073°57'4 8.9
2017-Dec-13 01:30N 40°48' W 073°52'4 8.1
2017-Dec-13 01:00N 40°49' W 073°47'47 9.1
2017-Dec-12 19:54N 41°05' W 072°49'4 9.3
2017-Dec-12 19:30N 41°06' W 072°44'5 9.3
2017-Dec-12 19:00N 41°07' W 072°38'5 9.3
2017-Dec-12 18:30N 41°08' W 072°32'5 9.0
2017-Dec-12 18:00N 41°10' W 072°27'4 8.1
2017-Dec-12 17:30N 41°11' W 072°21'4 7.7
2017-Dec-12 17:00N 41°12' W 072°16'4 7.5
2017-Dec-12 16:30N 41°13' W 072°12'90 6.5
2017-Dec-12 02:38N 42°09' W 070°37'1 9.1
2017-Dec-12 02:30N 42°10' W 070°38'5 9.2
2017-Dec-12 02:00N 42°15' W 070°40'4 8.3
2017-Dec-12 01:30N 42°18' W 070°44'5 9.3
2017-Dec-12 01:00N 42°19' W 070°50'4 7.4
2017-Dec-12 00:28N 42°18' W 070°55'3 6.3
2017-Dec-11 23:55N 42°15' W 070°58'0 0.8
2017-Dec-11 23:30N 42°15' W 070°58'0 0.0
2017-Dec-11 22:59N 42°15' W 070°58'0 0.0
2017-Dec-11 19:05N 42°15' W 070°58'0 0.1
2017-Dec-11 19:00N 42°15' W 070°58'0 0.6
2017-Dec-11 18:28N 42°15' W 070°58'3 7.3
2017-Dec-11 18:00N 42°18' W 070°55'4 7.1
2017-Dec-11 17:30N 42°20' W 070°51'4 8.8
2017-Dec-11 17:00N 42°23' W 070°47'4 8.8
2017-Dec-11 16:30N 42°26' W 070°44'4 8.6
2017-Dec-11 16:00N 42°30' W 070°40'4 8.4
2017-Dec-11 15:30N 42°33' W 070°36'4 8.3
2017-Dec-11 15:00N 42°36' W 070°33'4 8.4
2017-Dec-11 14:30N 42°40' W 070°33'4 8.8
2017-Dec-11 14:00N 42°45' W 070°34'4 8.7
2017-Dec-11 13:31N 42°49' W 070°35'4 8.7
2017-Dec-11 13:01N 42°53' W 070°38'4 8.9
2017-Dec-11 12:30N 42°57' W 070°39'6 0.3
2017-Dec-10 15:45N 43°03' W 070°42'1 4.5
2017-Dec-10 15:29N 43°01' W 070°41'2 3.9
2017-Dec-10 14:58N 42°60' W 070°40'2 4.2
2017-Dec-10 14:30N 42°58' W 070°40'4 7.1
2017-Dec-10 14:00N 42°54' W 070°38'4 7.5
2017-Dec-10 13:30N 42°51' W 070°36'4 8.0
2017-Dec-10 13:00N 42°47' W 070°35'4 8.1
2017-Dec-10 12:30N 42°43' W 070°33'4 7.7
2017-Dec-10 12:00N 42°39' W 070°32'4 7.6
2017-Dec-10 11:30N 42°36' W 070°32'4 7.2
2017-Dec-10 11:00N 42°32' W 070°31'4 7.3
2017-Dec-10 10:30N 42°28' W 070°31'4 7.2
2017-Dec-10 10:00N 42°25' W 070°31'3 7.0
2017-Dec-10 09:30N 42°21' W 070°31'4 7.0
2017-Dec-10 09:00N 42°18' W 070°31'3 7.0
2017-Dec-10 08:30N 42°14' W 070°30'183 7.2
2017-Dec-09 07:08N 40°23' W 073°44'2 8.2
2017-Dec-09 06:56N 40°22' W 073°46'37 7.9
2017-Dec-09 02:16N 39°46' W 073°58'2 8.2
2017-Dec-09 01:59N 39°44' W 073°59'4 8.4
2017-Dec-09 01:28N 39°40' W 074°01'59 8.2
2017-Dec-08 18:20N 38°53' W 074°47'4 8.1
2017-Dec-08 17:51N 38°50' W 074°50'3 7.9
2017-Dec-08 17:26N 38°49' W 074°54'11 5.7
2017-Dec-08 15:30N 38°55' W 075°05'3 6.3
2017-Dec-08 15:00N 38°58' W 075°07'3 6.5
2017-Dec-08 14:30N 39°01' W 075°09'3 7.0
2017-Dec-08 14:00N 39°04' W 075°11'4 7.8
2017-Dec-08 13:30N 39°08' W 075°13'4 8.3
2017-Dec-08 13:00N 39°11' W 075°16'5 9.4
2017-Dec-08 12:30N 39°15' W 075°19'510.0
2017-Dec-08 12:00N 39°19' W 075°24'510.4
2017-Dec-08 11:30N 39°23' W 075°28'510.2
2017-Dec-08 11:00N 39°27' W 075°33'5 9.1
2017-Dec-08 10:30N 39°31' W 075°33'4 8.7
2017-Dec-08 10:00N 39°35' W 075°34'4 7.2
2017-Dec-08 09:30N 39°39' W 075°33'4 7.6
2017-Dec-08 09:00N 39°42' W 075°31'4 7.0
2017-Dec-08 08:30N 39°46' W 075°29'3 6.5
2017-Dec-08 08:00N 39°48' W 075°26'3 6.5
2017-Dec-08 07:30N 39°50' W 075°22'3 5.7
2017-Dec-08 07:00N 39°51' W 075°19'3 6.2
2017-Dec-08 06:30N 39°51' W 075°15'0 0.3
2017-Dec-08 05:59N 39°51' W 075°15'0 0.0
2017-Dec-08 05:29N 39°51' W 075°15'0 0.0
2017-Dec-08 04:59N 39°51' W 075°15'0 0.0
2017-Dec-08 04:29N 39°51' W 075°15'0 0.0
2017-Dec-08 03:59N 39°51' W 075°15'0 0.0
2017-Dec-08 03:29N 39°51' W 075°15'0 0.0
2017-Dec-08 02:59N 39°51' W 075°15'0 0.0
2017-Dec-08 02:29N 39°51' W 075°15'0 0.0
2017-Dec-08 01:59N 39°51' W 075°15'0 0.0
2017-Dec-08 01:29N 39°51' W 075°15'0 0.0
2017-Dec-08 00:59N 39°51' W 075°15'0 0.0
2017-Dec-08 00:29N 39°51' W 075°15'0 0.0
2017-Dec-07 23:59N 39°51' W 075°15'0 0.0
2017-Dec-07 23:29N 39°51' W 075°15'0 0.0
2017-Dec-07 22:59N 39°51' W 075°15'0 0.0
2017-Dec-07 22:29N 39°51' W 075°15'0 0.0
2017-Dec-07 21:59N 39°51' W 075°15'0 0.0
2017-Dec-07 21:29N 39°51' W 075°15'0 0.0
2017-Dec-07 20:59N 39°51' W 075°15'0 0.0
2017-Dec-07 20:29N 39°51' W 075°15'0 0.0
2017-Dec-07 19:59N 39°51' W 075°15'0 0.0
2017-Dec-07 19:29N 39°51' W 075°15'0 0.0
2017-Dec-07 18:59N 39°51' W 075°15'0 0.0
2017-Dec-07 18:29N 39°51' W 075°15'0 0.0
2017-Dec-07 17:59N 39°51' W 075°15'0 0.0
2017-Dec-07 17:29N 39°51' W 075°15'0 0.0
2017-Dec-07 16:59N 39°51' W 075°15'0 0.0
2017-Dec-07 16:29N 39°51' W 075°15'0 0.0
2017-Dec-07 15:59N 39°51' W 075°15'0 0.0
2017-Dec-07 15:29N 39°51' W 075°15'0 0.0
2017-Dec-07 14:59N 39°51' W 075°15'0 0.0
2017-Dec-07 14:29N 39°51' W 075°15'0 0.0
2017-Dec-07 13:59N 39°51' W 075°15'0 0.0
2017-Dec-07 13:24N 39°51' W 075°15'0 0.0
2017-Dec-07 12:59N 39°51' W 075°15'0 0.0
2017-Dec-07 12:30N 39°51' W 075°15'0 0.0
2017-Dec-07 11:56N 39°51' W 075°15'0 0.0
2017-Dec-07 11:27N 39°51' W 075°15'0 0.0
2017-Dec-07 10:59N 39°51' W 075°15'0 0.0
2017-Dec-07 10:30N 39°51' W 075°15'0 0.0
2017-Dec-07 09:59N 39°51' W 075°15'0 0.0
2017-Dec-07 09:29N 39°51' W 075°15'0 0.0
2017-Dec-07 08:59N 39°51' W 075°15'0 0.0
2017-Dec-07 08:29N 39°51' W 075°15'0 0.0
2017-Dec-07 07:59N 39°51' W 075°15'0 0.0
2017-Dec-07 07:29N 39°51' W 075°15'0 0.0
2017-Dec-07 06:59N 39°51' W 075°15'0 0.0
2017-Dec-07 06:29N 39°51' W 075°15'0 0.1
2017-Dec-07 06:00N 39°51' W 075°15'3 6.0
2017-Dec-07 05:29N 39°51' W 075°19'5 9.6
2017-Dec-07 04:59N 39°49' W 075°24'2 5.0
2017-Dec-07 04:30N 39°47' W 075°27'510.7
2017-Dec-07 04:00N 39°43' W 075°31'4 7.7
2017-Dec-07 03:30N 39°39' W 075°33'4 7.8
2017-Dec-07 03:00N 39°36' W 075°34'4 8.2
2017-Dec-07 02:30N 39°31' W 075°33'4 8.0
2017-Dec-07 02:00N 39°28' W 075°34'4 7.8
2017-Dec-07 01:30N 39°25' W 075°30'4 7.5
2017-Dec-07 01:00N 39°22' W 075°27'3 6.8
2017-Dec-07 00:30N 39°19' W 075°24'3 6.8
2017-Dec-07 00:00N 39°17' W 075°21'3 6.8
2017-Dec-06 23:30N 39°14' W 075°18'3 6.5
2017-Dec-06 23:00N 39°11' W 075°17'4 7.0
2017-Dec-06 22:30N 39°08' W 075°14'4 7.3
2017-Dec-06 22:00N 39°05' W 075°11'4 7.1
2017-Dec-06 21:30N 39°02' W 075°09'  
Track history (hours):
 
Tides and Currents Weather Stations Pressure Air Temp Water Temp Dewpoint Dewpoint Depression Visibility Wind Speed Wind Dir Waves Ship Positions

Ruth M Reinauer

Owner: H.A. Reinauer, Staten Island, NY. More information available from US FCC via Universal Licensing System and Coast Guard Vessel Documentation Center.

Last reported at 2017-Dec-16 18:26 UTC. Time now 2017-Dec-16 18:46 UTC.
Position N 40°39' W 074°05'.

Length 151 m; draft 7.1 m.

Type: . MMSI: 367390130.

Date/timePositionNaut miles runAvg speedWind from/ knotsBaromVisibWave heightAir tempDewpointWater temp
2017-Dec-16 18:26N 40°39' W 074°05'0 0.0
2017-Dec-16 17:56N 40°39' W 074°05'0 0.0
2017-Dec-16 17:29N 40°39' W 074°05'0 0.1
2017-Dec-16 17:00N 40°39' W 074°05'3 5.1
2017-Dec-16 16:27N 40°40' W 074°02'0 0.1
2017-Dec-16 16:00N 40°40' W 074°02'0 0.1
2017-Dec-16 15:30N 40°40' W 074°02'0 0.2
2017-Dec-16 15:00N 40°40' W 074°02'0 0.0
2017-Dec-16 14:30N 40°40' W 074°02'0 0.0
2017-Dec-16 13:58N 40°40' W 074°02'1 1.4
2017-Dec-16 13:31N 40°41' W 074°02'4 8.1
2017-Dec-16 13:01N 40°45' W 074°01'4 7.2
2017-Dec-16 12:30N 40°48' W 073°59'4 7.2
2017-Dec-16 12:01N 40°51' W 073°57'4 7.6
2017-Dec-16 11:31N 40°55' W 073°55'5 0.1
2017-Dec-14 13:20N 40°59' W 073°54'3 9.6
2017-Dec-14 12:59N 40°56' W 073°55'510.2
2017-Dec-14 12:30N 40°51' W 073°57'510.7
2017-Dec-14 12:00N 40°47' W 073°60'510.3
2017-Dec-14 11:31N 40°42' W 074°02'4 8.1
2017-Dec-14 11:00N 40°39' W 074°06'1 1.3
2017-Dec-14 10:31N 40°39' W 074°07'0 0.0
2017-Dec-14 09:58N 40°39' W 074°07'0 0.0
2017-Dec-14 09:31N 40°39' W 074°07'0 0.0
2017-Dec-14 09:01N 40°39' W 074°07'0 0.0
2017-Dec-14 08:31N 40°39' W 074°07'0 0.0
2017-Dec-14 08:01N 40°39' W 074°07'0 0.0
2017-Dec-14 07:31N 40°39' W 074°07'0 0.0
2017-Dec-14 06:52N 40°39' W 074°07'0 0.0
2017-Dec-14 06:31N 40°39' W 074°07'0 0.0
2017-Dec-14 05:58N 40°39' W 074°07'0 0.0
2017-Dec-14 05:28N 40°39' W 074°07'0 0.0
2017-Dec-14 05:01N 40°39' W 074°07'0 0.0
2017-Dec-14 04:31N 40°39' W 074°07'0 0.0
2017-Dec-14 04:01N 40°39' W 074°07'0 0.0
2017-Dec-14 03:25N 40°39' W 074°07'0 0.0
2017-Dec-14 03:01N 40°39' W 074°07'0 0.0
2017-Dec-14 02:31N 40°39' W 074°07'0 0.0
2017-Dec-14 02:01N 40°39' W 074°07'0 0.0
2017-Dec-14 01:31N 40°39' W 074°07'0 0.0
2017-Dec-14 00:58N 40°39' W 074°07'0 0.0
2017-Dec-14 00:31N 40°39' W 074°07'0 0.0
2017-Dec-14 00:01N 40°39' W 074°07'0 0.0
2017-Dec-13 23:28N 40°39' W 074°07'0 0.0
2017-Dec-13 22:58N 40°39' W 074°07'0 0.0
2017-Dec-13 22:25N 40°39' W 074°07'0 0.0
2017-Dec-13 22:01N 40°39' W 074°07'0 0.0
2017-Dec-13 21:31N 40°39' W 074°07'0 0.0
2017-Dec-13 21:01N 40°39' W 074°07'0 0.0
2017-Dec-13 20:31N 40°39' W 074°07'0 0.0
2017-Dec-13 19:58N 40°39' W 074°07'0 0.0
2017-Dec-13 19:31N 40°39' W 074°07'0 0.0
2017-Dec-13 18:58N 40°39' W 074°07'0 0.0
2017-Dec-13 18:31N 40°39' W 074°07'0 0.0
2017-Dec-13 18:01N 40°39' W 074°07'0 0.0
2017-Dec-13 17:31N 40°39' W 074°07'0 0.0
2017-Dec-13 16:58N 40°39' W 074°07'0 0.0
2017-Dec-13 16:31N 40°39' W 074°07'0 0.0
2017-Dec-13 16:01N 40°39' W 074°07'0 0.0
2017-Dec-13 15:31N 40°39' W 074°07'0 0.0
2017-Dec-13 14:58N 40°39' W 074°07'0 0.0
2017-Dec-13 14:31N 40°39' W 074°07'0 0.0
2017-Dec-13 14:01N 40°39' W 074°07'0 0.0
2017-Dec-13 13:31N 40°39' W 074°07'0 0.0
2017-Dec-13 13:01N 40°39' W 074°07'0 0.0
2017-Dec-13 12:24N 40°39' W 074°07'0 0.0
2017-Dec-13 12:01N 40°39' W 074°07'0 0.0
2017-Dec-13 11:31N 40°39' W 074°07'0 0.0
2017-Dec-13 11:00N 40°39' W 074°07'0 0.0
2017-Dec-13 10:31N 40°39' W 074°07'0 0.0
2017-Dec-13 10:01N 40°39' W 074°07'0 0.0
2017-Dec-13 09:27N 40°39' W 074°07'0 0.0
2017-Dec-13 09:01N 40°39' W 074°07'0 0.0
2017-Dec-13 08:28N 40°39' W 074°07'0 0.0
2017-Dec-13 08:00N 40°39' W 074°07'0 0.0
2017-Dec-13 07:27N 40°39' W 074°07'0 0.0
2017-Dec-13 06:58N 40°39' W 074°07'0 0.0
2017-Dec-13 06:30N 40°39' W 074°07'0 0.0
2017-Dec-13 06:00N 40°39' W 074°07'0 0.0
2017-Dec-13 05:24N 40°39' W 074°07'0 0.0
2017-Dec-13 05:00N 40°39' W 074°07'0 0.0
2017-Dec-13 04:30N 40°39' W 074°07'0 0.0
2017-Dec-13 04:00N 40°39' W 074°07'0 0.0
2017-Dec-13 03:30N 40°39' W 074°07'1 2.9
2017-Dec-13 03:00N 40°39' W 074°05'4 7.6
2017-Dec-13 02:30N 40°41' W 074°01'510.2
2017-Dec-13 02:00N 40°46' W 073°57'4 8.9
2017-Dec-13 01:30N 40°48' W 073°52'4 8.1
2017-Dec-13 01:00N 40°49' W 073°47'47 9.1
2017-Dec-12 19:54N 41°05' W 072°49'4 9.3
2017-Dec-12 19:30N 41°06' W 072°44'5 9.3
2017-Dec-12 19:00N 41°07' W 072°38'5 9.3
2017-Dec-12 18:30N 41°08' W 072°32'5 9.0
2017-Dec-12 18:00N 41°10' W 072°27'4 8.1
2017-Dec-12 17:30N 41°11' W 072°21'4 7.7
2017-Dec-12 17:00N 41°12' W 072°16'4 7.5
2017-Dec-12 16:30N 41°13' W 072°12'90 6.5
2017-Dec-12 02:38N 42°09' W 070°37'1 9.1
2017-Dec-12 02:30N 42°10' W 070°38'5 9.2
2017-Dec-12 02:00N 42°15' W 070°40'4 8.3
2017-Dec-12 01:30N 42°18' W 070°44'5 9.3
2017-Dec-12 01:00N 42°19' W 070°50'4 7.4
2017-Dec-12 00:28N 42°18' W 070°55'3 6.3
2017-Dec-11 23:55N 42°15' W 070°58'0 0.8
2017-Dec-11 23:30N 42°15' W 070°58'0 0.0
2017-Dec-11 22:59N 42°15' W 070°58'0 0.0
2017-Dec-11 19:05N 42°15' W 070°58'0 0.1
2017-Dec-11 19:00N 42°15' W 070°58'0 0.6
2017-Dec-11 18:28N 42°15' W 070°58'3 7.3
2017-Dec-11 18:00N 42°18' W 070°55'4 7.1
2017-Dec-11 17:30N 42°20' W 070°51'4 8.8
2017-Dec-11 17:00N 42°23' W 070°47'4 8.8
2017-Dec-11 16:30N 42°26' W 070°44'4 8.6
2017-Dec-11 16:00N 42°30' W 070°40'4 8.4
2017-Dec-11 15:30N 42°33' W 070°36'4 8.3
2017-Dec-11 15:00N 42°36' W 070°33'4 8.4
2017-Dec-11 14:30N 42°40' W 070°33'4 8.8
2017-Dec-11 14:00N 42°45' W 070°34'4 8.7
2017-Dec-11 13:31N 42°49' W 070°35'4 8.7
2017-Dec-11 13:01N 42°53' W 070°38'4 8.9
2017-Dec-11 12:30N 42°57' W 070°39'6 0.3
2017-Dec-10 15:45N 43°03' W 070°42'1 4.5
2017-Dec-10 15:29N 43°01' W 070°41'2 3.9
2017-Dec-10 14:58N 42°60' W 070°40'2 4.2
2017-Dec-10 14:30N 42°58' W 070°40'4 7.1
2017-Dec-10 14:00N 42°54' W 070°38'4 7.5
2017-Dec-10 13:30N 42°51' W 070°36'4 8.0
2017-Dec-10 13:00N 42°47' W 070°35'4 8.1
2017-Dec-10 12:30N 42°43' W 070°33'4 7.7
2017-Dec-10 12:00N 42°39' W 070°32'4 7.6
2017-Dec-10 11:30N 42°36' W 070°32'4 7.2
2017-Dec-10 11:00N 42°32' W 070°31'4 7.3
2017-Dec-10 10:30N 42°28' W 070°31'4 7.2
2017-Dec-10 10:00N 42°25' W 070°31'3 7.0
2017-Dec-10 09:30N 42°21' W 070°31'4 7.0
2017-Dec-10 09:00N 42°18' W 070°31'3 7.0
2017-Dec-10 08:30N 42°14' W 070°30'183 7.2
2017-Dec-09 07:08N 40°23' W 073°44'2 8.2
2017-Dec-09 06:56N 40°22' W 073°46'37 7.9
2017-Dec-09 02:16N 39°46' W 073°58'2 8.2
2017-Dec-09 01:59N 39°44' W 073°59'4 8.4
2017-Dec-09 01:28N 39°40' W 074°01'59 8.2
2017-Dec-08 18:20N 38°53' W 074°47'4 8.1
2017-Dec-08 17:51N 38°50' W 074°50'3 7.9
2017-Dec-08 17:26N 38°49' W 074°54'11 5.7
2017-Dec-08 15:30N 38°55' W 075°05'3 6.3
2017-Dec-08 15:00N 38°58' W 075°07'3 6.5
2017-Dec-08 14:30N 39°01' W 075°09'3 7.0
2017-Dec-08 14:00N 39°04' W 075°11'4 7.8
2017-Dec-08 13:30N 39°08' W 075°13'4 8.3
2017-Dec-08 13:00N 39°11' W 075°16'5 9.4
2017-Dec-08 12:30N 39°15' W 075°19'510.0
2017-Dec-08 12:00N 39°19' W 075°24'510.4
2017-Dec-08 11:30N 39°23' W 075°28'510.2
2017-Dec-08 11:00N 39°27' W 075°33'5 9.1
2017-Dec-08 10:30N 39°31' W 075°33'4 8.7
2017-Dec-08 10:00N 39°35' W 075°34'4 7.2
2017-Dec-08 09:30N 39°39' W 075°33'4 7.6
2017-Dec-08 09:00N 39°42' W 075°31'4 7.0
2017-Dec-08 08:30N 39°46' W 075°29'3 6.5
2017-Dec-08 08:00N 39°48' W 075°26'3 6.5
2017-Dec-08 07:30N 39°50' W 075°22'3 5.7
2017-Dec-08 07:00N 39°51' W 075°19'3 6.2
2017-Dec-08 06:30N 39°51' W 075°15'0 0.3
2017-Dec-08 05:59N 39°51' W 075°15'0 0.0
2017-Dec-08 05:29N 39°51' W 075°15'0 0.0
2017-Dec-08 04:59N 39°51' W 075°15'0 0.0
2017-Dec-08 04:29N 39°51' W 075°15'0 0.0
2017-Dec-08 03:59N 39°51' W 075°15'0 0.0
2017-Dec-08 03:29N 39°51' W 075°15'0 0.0
2017-Dec-08 02:59N 39°51' W 075°15'0 0.0
2017-Dec-08 02:29N 39°51' W 075°15'0 0.0
2017-Dec-08 01:59N 39°51' W 075°15'0 0.0
2017-Dec-08 01:29N 39°51' W 075°15'0 0.0
2017-Dec-08 00:59N 39°51' W 075°15'0 0.0
2017-Dec-08 00:29N 39°51' W 075°15'0 0.0
2017-Dec-07 23:59N 39°51' W 075°15'0 0.0
2017-Dec-07 23:29N 39°51' W 075°15'0 0.0
2017-Dec-07 22:59N 39°51' W 075°15'0 0.0
2017-Dec-07 22:29N 39°51' W 075°15'0 0.0
2017-Dec-07 21:59N 39°51' W 075°15'0 0.0
2017-Dec-07 21:29N 39°51' W 075°15'0 0.0
2017-Dec-07 20:59N 39°51' W 075°15'0 0.0
2017-Dec-07 20:29N 39°51' W 075°15'0 0.0
2017-Dec-07 19:59N 39°51' W 075°15'0 0.0
2017-Dec-07 19:29N 39°51' W 075°15'0 0.0
2017-Dec-07 18:59N 39°51' W 075°15'0 0.0
2017-Dec-07 18:29N 39°51' W 075°15'0 0.0
2017-Dec-07 17:59N 39°51' W 075°15'0 0.0
2017-Dec-07 17:29N 39°51' W 075°15'0 0.0
2017-Dec-07 16:59N 39°51' W 075°15'0 0.0
2017-Dec-07 16:29N 39°51' W 075°15'0 0.0
2017-Dec-07 15:59N 39°51' W 075°15'0 0.0
2017-Dec-07 15:29N 39°51' W 075°15'0 0.0
2017-Dec-07 14:59N 39°51' W 075°15'0 0.0
2017-Dec-07 14:29N 39°51' W 075°15'0 0.0
2017-Dec-07 13:59N 39°51' W 075°15'0 0.0
2017-Dec-07 13:24N 39°51' W 075°15'0 0.0
2017-Dec-07 12:59N 39°51' W 075°15'0 0.0
2017-Dec-07 12:30N 39°51' W 075°15'0 0.0
2017-Dec-07 11:56N 39°51' W 075°15'0 0.0
2017-Dec-07 11:27N 39°51' W 075°15'0 0.0
2017-Dec-07 10:59N 39°51' W 075°15'0 0.0
2017-Dec-07 10:30N 39°51' W 075°15'0 0.0
2017-Dec-07 09:59N 39°51' W 075°15'0 0.0
2017-Dec-07 09:29N 39°51' W 075°15'0 0.0
2017-Dec-07 08:59N 39°51' W 075°15'0 0.0
2017-Dec-07 08:29N 39°51' W 075°15'0 0.0
2017-Dec-07 07:59N 39°51' W 075°15'0 0.0
2017-Dec-07 07:29N 39°51' W 075°15'0 0.0
2017-Dec-07 06:59N 39°51' W 075°15'0 0.0
2017-Dec-07 06:29N 39°51' W 075°15'0 0.1
2017-Dec-07 06:00N 39°51' W 075°15'3 6.0
2017-Dec-07 05:29N 39°51' W 075°19'5 9.6
2017-Dec-07 04:59N 39°49' W 075°24'2 5.0
2017-Dec-07 04:30N 39°47' W 075°27'510.7
2017-Dec-07 04:00N 39°43' W 075°31'4 7.7
2017-Dec-07 03:30N 39°39' W 075°33'4 7.8
2017-Dec-07 03:00N 39°36' W 075°34'4 8.2
2017-Dec-07 02:30N 39°31' W 075°33'4 8.0
2017-Dec-07 02:00N 39°28' W 075°34'4 7.8
2017-Dec-07 01:30N 39°25' W 075°30'4 7.5
2017-Dec-07 01:00N 39°22' W 075°27'3 6.8
2017-Dec-07 00:30N 39°19' W 075°24'3 6.8
2017-Dec-07 00:00N 39°17' W 075°21'3 6.8
2017-Dec-06 23:30N 39°14' W 075°18'3 6.5
2017-Dec-06 23:00N 39°11' W 075°17'4 7.0
2017-Dec-06 22:30N 39°08' W 075°14'4 7.3
2017-Dec-06 22:00N 39°05' W 075°11'4 7.1
2017-Dec-06 21:30N 39°02' W 075°09'  

Dump ship's entire track history